sensor_id;sensor_type;location;lat;lon;timestamp;P1;durP1;ratioP1;P2;durP2;ratioP2
79652;SDS011;69122;41.698;21.754;2024-01-15T08:35:43;105.80;;;51.53;;
79652;SDS011;69122;41.698;21.754;2024-01-15T08:41:42;102.32;;;51.60;;
79652;SDS011;69122;41.698;21.754;2024-01-15T08:44:36;87.28;;;45.58;;
79652;SDS011;69122;41.698;21.754;2024-01-15T08:47:08;89.00;;;41.83;;
79652;SDS011;69122;41.698;21.754;2024-01-15T08:49:39;90.18;;;46.22;;
79652;SDS011;69122;41.698;21.754;2024-01-15T08:52:15;73.00;;;36.97;;
79652;SDS011;69122;41.698;21.754;2024-01-15T08:54:41;76.20;;;37.88;;
79652;SDS011;69122;41.698;21.754;2024-01-15T08:57:07;59.33;;;32.45;;
79652;SDS011;69122;41.698;21.754;2024-01-15T08:59:40;68.35;;;33.90;;
79652;SDS011;69122;41.698;21.754;2024-01-15T09:02:21;94.10;;;47.28;;
79652;SDS011;69122;41.698;21.754;2024-01-15T09:04:53;88.18;;;46.88;;
79652;SDS011;69122;41.698;21.754;2024-01-15T09:07:19;85.47;;;45.78;;
79652;SDS011;69122;41.698;21.754;2024-01-15T09:09:47;96.93;;;46.45;;
79652;SDS011;69122;41.698;21.754;2024-01-15T09:12:13;128.15;;;58.22;;
79652;SDS011;69122;41.698;21.754;2024-01-15T09:14:42;73.03;;;38.30;;
79652;SDS011;69122;41.698;21.754;2024-01-15T09:17:09;80.32;;;40.53;;
79652;SDS011;69122;41.698;21.754;2024-01-15T09:19:45;160.60;;;57.53;;
79652;SDS011;69122;41.698;21.754;2024-01-15T09:22:27;90.88;;;46.42;;
79652;SDS011;69122;41.698;21.754;2024-01-15T09:25:00;97.47;;;52.35;;
79652;SDS011;69122;41.698;21.754;2024-01-15T09:27:33;89.13;;;45.85;;
79652;SDS011;69122;41.698;21.754;2024-01-15T09:30:03;95.18;;;45.10;;
79652;SDS011;69122;41.698;21.754;2024-01-15T09:32:30;77.47;;;39.17;;
79652;SDS011;69122;41.698;21.754;2024-01-15T09:35:00;61.08;;;34.88;;
79652;SDS011;69122;41.698;21.754;2024-01-15T09:37:29;69.38;;;34.00;;
79652;SDS011;69122;41.698;21.754;2024-01-15T09:40:06;63.47;;;35.60;;
79652;SDS011;69122;41.698;21.754;2024-01-15T09:42:39;64.20;;;35.15;;
79652;SDS011;69122;41.698;21.754;2024-01-15T09:45:11;49.25;;;27.70;;
79652;SDS011;69122;41.698;21.754;2024-01-15T09:50:08;49.65;;;27.23;;
79652;SDS011;69122;41.698;21.754;2024-01-15T09:52:52;49.25;;;26.15;;
79652;SDS011;69122;41.698;21.754;2024-01-15T09:55:29;122.57;;;88.95;;
79652;SDS011;69122;41.698;21.754;2024-01-15T09:58:01;49.58;;;26.13;;
79652;SDS011;69122;41.698;21.754;2024-01-15T10:15:10;41.60;;;24.60;;
79652;SDS011;69122;41.698;21.754;2024-01-15T11:30:08;60.83;;;30.50;;
79652;SDS011;69122;41.698;21.754;2024-01-15T11:32:35;51.50;;;28.60;;
79652;SDS011;69122;41.698;21.754;2024-01-15T11:35:02;73.07;;;37.58;;
79652;SDS011;69122;41.698;21.754;2024-01-15T11:40:13;56.80;;;33.20;;
79652;SDS011;69122;41.698;21.754;2024-01-15T11:42:44;58.05;;;34.88;;
79652;SDS011;69122;41.698;21.754;2024-01-15T11:45:10;59.40;;;33.95;;
79652;SDS011;69122;41.698;21.754;2024-01-15T11:50:21;53.90;;;33.08;;
79652;SDS011;69122;41.698;21.754;2024-01-15T11:52:57;58.85;;;31.48;;
79652;SDS011;69122;41.698;21.754;2024-01-15T11:55:27;56.08;;;30.80;;
79652;SDS011;69122;41.698;21.754;2024-01-15T11:57:57;54.25;;;31.42;;
79652;SDS011;69122;41.698;21.754;2024-01-15T12:00:23;49.95;;;28.63;;
79652;SDS011;69122;41.698;21.754;2024-01-15T12:02:50;54.97;;;30.75;;
79652;SDS011;69122;41.698;21.754;2024-01-15T12:05:17;64.50;;;32.33;;
79652;SDS011;69122;41.698;21.754;2024-01-15T12:07:43;71.03;;;36.67;;
79652;SDS011;69122;41.698;21.754;2024-01-15T12:10:14;67.88;;;37.60;;
79652;SDS011;69122;41.698;21.754;2024-01-15T12:15:09;63.00;;;34.08;;
79652;SDS011;69122;41.698;21.754;2024-01-15T12:17:45;72.78;;;39.50;;
79652;SDS011;69122;41.698;21.754;2024-01-15T12:20:12;66.07;;;36.88;;
79652;SDS011;69122;41.698;21.754;2024-01-15T12:22:39;66.80;;;38.35;;
79652;SDS011;69122;41.698;21.754;2024-01-15T12:25:08;49.90;;;26.95;;
79652;SDS011;69122;41.698;21.754;2024-01-15T12:27:34;54.92;;;31.20;;
79652;SDS011;69122;41.698;21.754;2024-01-15T12:30:01;47.00;;;24.10;;
79652;SDS011;69122;41.698;21.754;2024-01-15T12:32:27;52.58;;;32.63;;
79652;SDS011;69122;41.698;21.754;2024-01-15T12:34:58;56.45;;;32.42;;
79652;SDS011;69122;41.698;21.754;2024-01-15T12:37:27;49.10;;;30.27;;
79652;SDS011;69122;41.698;21.754;2024-01-15T12:39:55;53.33;;;28.02;;
79652;SDS011;69122;41.698;21.754;2024-01-15T12:42:27;64.38;;;34.53;;
79652;SDS011;69122;41.698;21.754;2024-01-15T12:44:55;55.70;;;33.75;;
79652;SDS011;69122;41.698;21.754;2024-01-15T12:47:21;63.92;;;35.63;;
79652;SDS011;69122;41.698;21.754;2024-01-15T12:49:48;60.88;;;30.38;;
79652;SDS011;69122;41.698;21.754;2024-01-15T12:52:19;63.65;;;34.10;;
79652;SDS011;69122;41.698;21.754;2024-01-15T12:54:49;56.65;;;30.33;;
79652;SDS011;69122;41.698;21.754;2024-01-15T12:57:18;46.05;;;26.52;;
79652;SDS011;69122;41.698;21.754;2024-01-15T12:59:54;51.50;;;27.92;;
79652;SDS011;69122;41.698;21.754;2024-01-15T13:04:52;59.20;;;29.63;;
79652;SDS011;69122;41.698;21.754;2024-01-15T13:07:19;58.35;;;32.50;;
79652;SDS011;69122;41.698;21.754;2024-01-15T13:09:45;70.05;;;41.30;;
79652;SDS011;69122;41.698;21.754;2024-01-15T13:12:11;69.00;;;34.83;;
79652;SDS011;69122;41.698;21.754;2024-01-15T13:14:38;60.03;;;36.13;;
79652;SDS011;69122;41.698;21.754;2024-01-15T13:17:05;62.13;;;35.22;;
79652;SDS011;69122;41.698;21.754;2024-01-15T13:19:32;61.20;;;34.33;;
79652;SDS011;69122;41.698;21.754;2024-01-15T13:21:59;52.95;;;29.20;;
79652;SDS011;69122;41.698;21.754;2024-01-15T13:24:28;61.60;;;28.88;;
79652;SDS011;69122;41.698;21.754;2024-01-15T13:26:55;130.68;;;63.35;;
79652;SDS011;69122;41.698;21.754;2024-01-15T13:29:22;99.95;;;53.38;;
79652;SDS011;69122;41.698;21.754;2024-01-15T13:31:48;91.90;;;47.80;;
79652;SDS011;69122;41.698;21.754;2024-01-15T13:34:14;177.98;;;86.00;;
79652;SDS011;69122;41.698;21.754;2024-01-15T13:36:40;146.75;;;84.03;;
79652;SDS011;69122;41.698;21.754;2024-01-15T13:39:06;96.25;;;47.78;;
79652;SDS011;69122;41.698;21.754;2024-01-15T13:41:36;83.13;;;41.60;;
79652;SDS011;69122;41.698;21.754;2024-01-15T13:44:02;86.43;;;48.60;;
79652;SDS011;69122;41.698;21.754;2024-01-15T13:46:28;58.92;;;34.03;;
79652;SDS011;69122;41.698;21.754;2024-01-15T13:48:55;193.50;;;85.72;;
79652;SDS011;69122;41.698;21.754;2024-01-15T13:51:22;61.00;;;33.50;;
79652;SDS011;69122;41.698;21.754;2024-01-15T13:53:51;167.38;;;83.82;;
79652;SDS011;69122;41.698;21.754;2024-01-15T13:56:18;111.47;;;54.47;;
79652;SDS011;69122;41.698;21.754;2024-01-15T13:58:44;92.25;;;46.33;;
79652;SDS011;69122;41.698;21.754;2024-01-15T14:01:10;116.53;;;58.78;;
79652;SDS011;69122;41.698;21.754;2024-01-15T14:03:37;72.07;;;40.95;;
79652;SDS011;69122;41.698;21.754;2024-01-15T14:06:03;76.97;;;40.05;;
79652;SDS011;69122;41.698;21.754;2024-01-15T14:08:34;108.28;;;63.38;;
79652;SDS011;69122;41.698;21.754;2024-01-15T14:11:04;74.95;;;41.25;;
79652;SDS011;69122;41.698;21.754;2024-01-15T14:13:32;103.30;;;48.38;;
79652;SDS011;69122;41.698;21.754;2024-01-15T14:15:58;220.23;;;95.18;;
79652;SDS011;69122;41.698;21.754;2024-01-15T14:18:26;181.13;;;71.10;;
79652;SDS011;69122;41.698;21.754;2024-01-15T14:20:52;198.15;;;75.55;;
79652;SDS011;69122;41.698;21.754;2024-01-15T14:23:19;130.50;;;56.67;;
79652;SDS011;69122;41.698;21.754;2024-01-15T14:25:48;107.25;;;51.55;;
79652;SDS011;69122;41.698;21.754;2024-01-15T14:28:14;78.13;;;39.53;;
79652;SDS011;69122;41.698;21.754;2024-01-15T14:30:40;81.95;;;40.63;;
79652;SDS011;69122;41.698;21.754;2024-01-15T14:33:06;319.00;;;106.43;;
79652;SDS011;69122;41.698;21.754;2024-01-15T14:35:33;260.13;;;91.22;;
79652;SDS011;69122;41.698;21.754;2024-01-15T14:37:59;70.05;;;36.10;;
79652;SDS011;69122;41.698;21.754;2024-01-15T14:40:25;76.47;;;38.83;;
79652;SDS011;69122;41.698;21.754;2024-01-15T14:42:52;61.42;;;32.40;;
79652;SDS011;69122;41.698;21.754;2024-01-15T14:45:18;60.40;;;34.20;;
79652;SDS011;69122;41.698;21.754;2024-01-15T14:47:44;61.63;;;34.40;;
79652;SDS011;69122;41.698;21.754;2024-01-15T14:50:11;60.30;;;34.17;;
79652;SDS011;69122;41.698;21.754;2024-01-15T14:52:37;57.40;;;34.10;;
79652;SDS011;69122;41.698;21.754;2024-01-15T14:55:07;59.78;;;33.70;;
79652;SDS011;69122;41.698;21.754;2024-01-15T14:57:34;62.85;;;35.92;;
79652;SDS011;69122;41.698;21.754;2024-01-15T15:00:00;63.10;;;36.80;;
79652;SDS011;69122;41.698;21.754;2024-01-15T15:02:27;108.20;;;49.40;;
79652;SDS011;69122;41.698;21.754;2024-01-15T15:04:54;112.10;;;52.83;;
79652;SDS011;69122;41.698;21.754;2024-01-15T15:07:23;85.75;;;45.45;;
79652;SDS011;69122;41.698;21.754;2024-01-15T15:09:49;324.80;;;126.38;;
79652;SDS011;69122;41.698;21.754;2024-01-15T15:12:16;130.40;;;58.10;;
79652;SDS011;69122;41.698;21.754;2024-01-15T15:14:42;109.30;;;50.85;;
79652;SDS011;69122;41.698;21.754;2024-01-15T15:17:08;54.58;;;28.63;;
79652;SDS011;69122;41.698;21.754;2024-01-15T15:19:35;61.33;;;33.65;;
79652;SDS011;69122;41.698;21.754;2024-01-15T15:22:01;50.75;;;28.20;;
79652;SDS011;69122;41.698;21.754;2024-01-15T15:24:28;93.60;;;45.67;;
79652;SDS011;69122;41.698;21.754;2024-01-15T15:26:54;39.90;;;22.65;;
79652;SDS011;69122;41.698;21.754;2024-01-15T15:29:20;54.60;;;28.65;;
79652;SDS011;69122;41.698;21.754;2024-01-15T15:31:48;67.78;;;34.65;;
79652;SDS011;69122;41.698;21.754;2024-01-15T15:34:15;87.70;;;43.55;;
79652;SDS011;69122;41.698;21.754;2024-01-15T15:36:41;105.32;;;48.88;;
79652;SDS011;69122;41.698;21.754;2024-01-15T15:39:07;113.20;;;44.63;;
79652;SDS011;69122;41.698;21.754;2024-01-15T15:41:33;77.55;;;39.38;;
79652;SDS011;69122;41.698;21.754;2024-01-15T15:43:59;59.88;;;32.15;;
79652;SDS011;69122;41.698;21.754;2024-01-15T15:46:26;54.72;;;27.70;;
79652;SDS011;69122;41.698;21.754;2024-01-15T15:48:52;53.20;;;26.77;;
79652;SDS011;69122;41.698;21.754;2024-01-15T15:51:18;39.20;;;22.17;;
79652;SDS011;69122;41.698;21.754;2024-01-15T15:53:44;43.10;;;24.20;;
79652;SDS011;69122;41.698;21.754;2024-01-15T15:56:10;39.13;;;24.50;;
79652;SDS011;69122;41.698;21.754;2024-01-15T15:58:36;35.80;;;19.30;;
79652;SDS011;69122;41.698;21.754;2024-01-15T16:01:02;42.10;;;22.90;;
79652;SDS011;69122;41.698;21.754;2024-01-15T16:03:29;50.90;;;27.60;;
79652;SDS011;69122;41.698;21.754;2024-01-15T16:05:55;71.95;;;39.20;;
79652;SDS011;69122;41.698;21.754;2024-01-15T16:08:21;52.40;;;31.02;;
79652;SDS011;69122;41.698;21.754;2024-01-15T16:10:47;47.60;;;27.55;;
79652;SDS011;69122;41.698;21.754;2024-01-15T16:13:16;55.38;;;24.13;;
79652;SDS011;69122;41.698;21.754;2024-01-15T16:15:42;96.20;;;47.92;;
79652;SDS011;69122;41.698;21.754;2024-01-15T16:18:14;55.28;;;30.27;;
79652;SDS011;69122;41.698;21.754;2024-01-15T16:20:41;67.40;;;38.08;;
79652;SDS011;69122;41.698;21.754;2024-01-15T16:23:07;88.30;;;48.72;;
79652;SDS011;69122;41.698;21.754;2024-01-15T16:25:34;76.80;;;41.80;;
79652;SDS011;69122;41.698;21.754;2024-01-15T16:28:05;177.85;;;77.55;;
79652;SDS011;69122;41.698;21.754;2024-01-15T16:30:32;200.60;;;91.18;;
79652;SDS011;69122;41.698;21.754;2024-01-15T16:32:58;135.10;;;63.08;;
79652;SDS011;69122;41.698;21.754;2024-01-15T16:35:24;101.43;;;48.45;;
79652;SDS011;69122;41.698;21.754;2024-01-15T16:37:50;135.48;;;66.38;;
79652;SDS011;69122;41.698;21.754;2024-01-15T16:40:16;111.90;;;58.38;;
79652;SDS011;69122;41.698;21.754;2024-01-15T16:42:42;159.75;;;78.55;;
79652;SDS011;69122;41.698;21.754;2024-01-15T16:45:10;102.75;;;54.13;;
79652;SDS011;69122;41.698;21.754;2024-01-15T16:47:36;135.73;;;71.10;;
79652;SDS011;69122;41.698;21.754;2024-01-15T16:50:03;131.73;;;67.18;;
79652;SDS011;69122;41.698;21.754;2024-01-15T16:52:30;198.20;;;103.10;;
79652;SDS011;69122;41.698;21.754;2024-01-15T16:54:56;104.07;;;51.65;;
79652;SDS011;69122;41.698;21.754;2024-01-15T16:57:22;102.20;;;53.70;;
79652;SDS011;69122;41.698;21.754;2024-01-15T16:59:49;84.57;;;47.20;;
79652;SDS011;69122;41.698;21.754;2024-01-15T17:02:15;89.43;;;50.85;;
79652;SDS011;69122;41.698;21.754;2024-01-15T17:04:44;117.00;;;59.00;;
79652;SDS011;69122;41.698;21.754;2024-01-15T17:07:10;133.00;;;67.45;;
79652;SDS011;69122;41.698;21.754;2024-01-15T17:09:36;174.32;;;95.32;;
79652;SDS011;69122;41.698;21.754;2024-01-15T17:12:03;136.45;;;66.03;;
79652;SDS011;69122;41.698;21.754;2024-01-15T17:14:29;119.57;;;62.05;;
79652;SDS011;69122;41.698;21.754;2024-01-15T17:16:55;134.88;;;66.78;;
79652;SDS011;69122;41.698;21.754;2024-01-15T17:19:21;105.30;;;53.88;;
79652;SDS011;69122;41.698;21.754;2024-01-15T17:21:48;127.05;;;61.53;;
79652;SDS011;69122;41.698;21.754;2024-01-15T17:24:14;125.72;;;58.78;;
79652;SDS011;69122;41.698;21.754;2024-01-15T17:26:40;138.63;;;66.65;;
79652;SDS011;69122;41.698;21.754;2024-01-15T17:29:06;100.72;;;51.95;;
79652;SDS011;69122;41.698;21.754;2024-01-15T17:31:33;97.60;;;53.58;;
79652;SDS011;69122;41.698;21.754;2024-01-15T17:33:59;120.35;;;59.55;;
79652;SDS011;69122;41.698;21.754;2024-01-15T17:36:25;125.97;;;61.85;;
79652;SDS011;69122;41.698;21.754;2024-01-15T17:38:51;115.22;;;59.10;;
79652;SDS011;69122;41.698;21.754;2024-01-15T17:41:26;120.57;;;62.05;;
79652;SDS011;69122;41.698;21.754;2024-01-15T18:07:59;216.77;;;94.25;;
79652;SDS011;69122;41.698;21.754;2024-01-15T18:10:44;210.52;;;99.30;;
79652;SDS011;69122;41.698;21.754;2024-01-15T18:13:30;177.02;;;81.38;;
79652;SDS011;69122;41.698;21.754;2024-01-15T18:21:44;180.30;;;89.85;;
79652;SDS011;69122;41.698;21.754;2024-01-15T18:24:11;141.07;;;82.32;;
79652;SDS011;69122;41.698;21.754;2024-01-15T18:26:37;157.57;;;82.07;;
79652;SDS011;69122;41.698;21.754;2024-01-15T18:29:05;185.10;;;102.90;;
79652;SDS011;69122;41.698;21.754;2024-01-15T18:31:31;158.05;;;78.10;;
79652;SDS011;69122;41.698;21.754;2024-01-15T18:33:57;163.07;;;85.18;;
79652;SDS011;69122;41.698;21.754;2024-01-15T18:36:23;168.02;;;83.30;;
79652;SDS011;69122;41.698;21.754;2024-01-15T18:38:50;163.43;;;89.60;;
79652;SDS011;69122;41.698;21.754;2024-01-15T18:41:22;203.13;;;107.85;;
79652;SDS011;69122;41.698;21.754;2024-01-15T18:43:49;195.90;;;103.78;;
79652;SDS011;69122;41.698;21.754;2024-01-15T18:46:18;176.35;;;97.50;;
79652;SDS011;69122;41.698;21.754;2024-01-15T18:48:44;188.65;;;102.25;;
79652;SDS011;69122;41.698;21.754;2024-01-15T18:51:18;163.32;;;91.93;;
79652;SDS011;69122;41.698;21.754;2024-01-15T18:53:44;169.10;;;95.13;;
79652;SDS011;69122;41.698;21.754;2024-01-15T18:56:11;142.77;;;83.57;;
79652;SDS011;69122;41.698;21.754;2024-01-15T18:58:37;217.48;;;114.15;;
79652;SDS011;69122;41.698;21.754;2024-01-15T19:01:07;180.32;;;99.63;;
79652;SDS011;69122;41.698;21.754;2024-01-15T19:03:33;234.25;;;117.88;;
79652;SDS011;69122;41.698;21.754;2024-01-15T19:05:59;206.10;;;109.25;;
79652;SDS011;69122;41.698;21.754;2024-01-15T19:08:25;220.65;;;111.38;;
79652;SDS011;69122;41.698;21.754;2024-01-15T19:10:51;216.82;;;117.82;;
79652;SDS011;69122;41.698;21.754;2024-01-15T19:13:20;200.23;;;107.10;;
79652;SDS011;69122;41.698;21.754;2024-01-15T19:15:47;164.68;;;82.63;;
79652;SDS011;69122;41.698;21.754;2024-01-15T19:18:13;126.70;;;63.20;;
79652;SDS011;69122;41.698;21.754;2024-01-15T19:20:39;84.50;;;45.03;;
79652;SDS011;69122;41.698;21.754;2024-01-15T19:23:06;142.65;;;74.95;;
79652;SDS011;69122;41.698;21.754;2024-01-15T19:25:33;63.60;;;35.00;;
79652;SDS011;69122;41.698;21.754;2024-01-15T19:28:00;83.93;;;47.45;;
79652;SDS011;69122;41.698;21.754;2024-01-15T19:30:28;91.90;;;53.83;;
79652;SDS011;69122;41.698;21.754;2024-01-15T19:32:55;100.95;;;54.55;;
79652;SDS011;69122;41.698;21.754;2024-01-15T19:35:21;124.55;;;63.17;;
79652;SDS011;69122;41.698;21.754;2024-01-15T19:37:47;158.57;;;83.00;;
79652;SDS011;69122;41.698;21.754;2024-01-15T19:40:13;134.80;;;68.35;;
79652;SDS011;69122;41.698;21.754;2024-01-15T19:42:40;92.38;;;42.53;;
79652;SDS011;69122;41.698;21.754;2024-01-15T19:45:06;71.32;;;39.28;;
79652;SDS011;69122;41.698;21.754;2024-01-15T19:47:32;68.35;;;38.30;;
79652;SDS011;69122;41.698;21.754;2024-01-15T19:49:58;59.92;;;30.58;;
79652;SDS011;69122;41.698;21.754;2024-01-15T19:52:25;100.32;;;49.78;;
79652;SDS011;69122;41.698;21.754;2024-01-15T19:54:51;98.38;;;49.97;;
79652;SDS011;69122;41.698;21.754;2024-01-15T19:57:17;104.03;;;55.40;;
79652;SDS011;69122;41.698;21.754;2024-01-15T19:59:44;90.95;;;49.30;;
79652;SDS011;69122;41.698;21.754;2024-01-15T20:02:10;95.57;;;53.03;;
79652;SDS011;69122;41.698;21.754;2024-01-15T20:04:36;95.72;;;50.75;;
79652;SDS011;69122;41.698;21.754;2024-01-15T20:07:11;103.10;;;57.40;;
79652;SDS011;69122;41.698;21.754;2024-01-15T20:09:50;88.65;;;49.67;;
79652;SDS011;69122;41.698;21.754;2024-01-15T20:12:41;88.50;;;47.50;;
79652;SDS011;69122;41.698;21.754;2024-01-15T20:18:01;108.50;;;57.97;;
79652;SDS011;69122;41.698;21.754;2024-01-15T20:20:33;91.07;;;53.03;;
79652;SDS011;69122;41.698;21.754;2024-01-15T20:23:09;105.50;;;60.40;;
79652;SDS011;69122;41.698;21.754;2024-01-15T20:25:35;102.75;;;54.53;;
79652;SDS011;69122;41.698;21.754;2024-01-15T20:31:13;118.68;;;57.45;;
79652;SDS011;69122;41.698;21.754;2024-01-15T20:34:02;119.95;;;54.45;;
79652;SDS011;69122;41.698;21.754;2024-01-15T20:36:51;115.15;;;63.08;;
79652;SDS011;69122;41.698;21.754;2024-01-15T20:51:38;63.40;;;35.05;;
79652;SDS011;69122;41.698;21.754;2024-01-15T20:57:36;64.90;;;33.70;;
79652;SDS011;69122;41.698;21.754;2024-01-15T21:00:37;61.70;;;34.40;;
79652;SDS011;69122;41.698;21.754;2024-01-15T21:03:23;65.40;;;34.40;;
79652;SDS011;69122;41.698;21.754;2024-01-15T21:06:23;67.10;;;36.38;;
79652;SDS011;69122;41.698;21.754;2024-01-15T21:09:13;63.80;;;35.35;;
79652;SDS011;69122;41.698;21.754;2024-01-15T21:11:59;53.63;;;29.83;;
79652;SDS011;69122;41.698;21.754;2024-01-15T21:57:18;76.68;;;41.63;;
79652;SDS011;69122;41.698;21.754;2024-01-15T23:07:39;62.75;;;32.75;;
79652;SDS011;69122;41.698;21.754;2024-01-15T23:13:19;71.72;;;37.42;;
79652;SDS011;69122;41.698;21.754;2024-01-15T23:16:33;74.95;;;39.42;;
79652;SDS011;69122;41.698;21.754;2024-01-15T23:19:38;70.20;;;36.55;;
79652;SDS011;69122;41.698;21.754;2024-01-15T23:25:28;71.53;;;38.35;;
79652;SDS011;69122;41.698;21.754;2024-01-15T23:28:24;70.97;;;37.72;;
79652;SDS011;69122;41.698;21.754;2024-01-15T23:31:13;61.97;;;32.38;;
79652;SDS011;69122;41.698;21.754;2024-01-15T23:34:03;56.28;;;29.63;;
79652;SDS011;69122;41.698;21.754;2024-01-15T23:36:37;55.17;;;29.00;;
79652;SDS011;69122;41.698;21.754;2024-01-15T23:58:30;61.75;;;27.83;;
